Time;durP1;ratioP1;P1;durP2;ratioP2;P2;SDS_P1;SDS_P2;PMS_P1;PMS_P2;Temp;Humidity;BMP_temperature;BMP_pressure;BME280_temperature;BME280_humidity;BME280_pressure;Samples;Min_cycle;Max_cycle;Signal;HPM_P1;HPM_P2
2021/10/30 00:12:34;;;;;;;23.55;14.10;;;;;;;12.25;67.87;100428.70;715293;1205;114382;-72
2021/10/30 00:27:37;;;;;;;26.30;13.63;;;;;;;11.71;67.69;100438.84;714507;1202;115088;-72
2021/10/30 00:42:40;;;;;;;25.37;13.40;;;;;;;11.47;68.09;100440.08;714639;1178;114260;-71
2021/10/30 00:57:44;;;;;;;25.18;14.95;;;;;;;11.27;68.35;100434.80;715515;1200;114801;-72
2021/10/30 01:12:47;;;;;;;26.65;14.83;;;;;;;11.08;68.81;100425.08;714455;1200;114669;-72
2021/10/30 01:27:52;;;;;;;26.07;15.47;;;;;;;10.96;68.94;100421.73;714965;1206;114930;-71
2021/10/30 01:43:03;;;;;;;27.17;15.27;;;;;;;10.64;69.32;100411.44;714616;1200;114261;-71
2021/10/30 01:58:06;;;;;;;28.93;16.68;;;;;;;10.33;70.71;100404.38;714044;1200;114815;-71
2021/10/30 02:13:08;;;;;;;29.48;16.18;;;;;;;10.13;71.62;100418.33;715381;1177;114651;-71
2021/10/30 02:28:11;;;;;;;29.33;15.00;;;;;;;9.88;73.27;100406.45;714947;1177;114139;-72
2021/10/30 02:43:13;;;;;;;30.83;16.43;;;;;;;9.79;73.53;100401.02;714158;1201;113692;-71
2021/10/30 02:58:15;;;;;;;31.03;16.27;;;;;;;9.73;73.71;100401.52;714520;1185;113834;-72
2021/10/30 03:13:17;;;;;;;29.60;15.85;;;;;;;9.61;73.07;100398.13;714482;1202;114747;-72
2021/10/30 03:28:19;;;;;;;27.33;14.98;;;;;;;9.36;74.45;100425.48;714096;1202;113903;-71
2021/10/30 03:43:21;;;;;;;23.02;14.35;;;;;;;9.17;75.49;100423.50;714375;1203;114675;-72
2021/10/30 03:58:23;;;;;;;28.78;15.23;;;;;;;9.02;75.48;100433.41;714456;1203;114285;-71
2021/10/30 04:13:29;;;;;;;30.53;17.73;;;;;;;8.79;75.74;100427.39;714376;1202;115264;-71
2021/10/30 04:28:32;;;;;;;29.10;16.40;;;;;;;8.71;75.98;100422.75;714621;1202;114225;-71
2021/10/30 04:43:34;;;;;;;30.33;16.53;;;;;;;8.72;76.19;100431.42;713843;1202;114148;-72
2021/10/30 04:58:43;;;;;;;28.38;15.53;;;;;;;8.57;76.73;100436.06;713988;1177;113611;-72
2021/10/30 05:13:45;;;;;;;;;;;;;;;8.45;76.52;100443.04;714558;1202;113822;-71
2021/10/30 05:28:48;;;;;;;31.37;17.40;;;;;;;8.21;77.83;100448.33;714626;1205;100607;-72
2021/10/30 05:43:50;;;;;;;31.98;15.80;;;;;;;7.98;78.93;100459.58;713824;1189;116037;-73
2021/10/30 05:58:52;;;;;;;53.53;22.40;;;;;;;7.75;79.56;100461.27;714247;1177;113619;-71
2021/10/30 06:13:55;;;;;;;35.58;19.10;;;;;;;7.82;80.49;100472.09;715114;1202;114587;-72
2021/10/30 06:28:57;;;;;;;50.78;23.63;;;;;;;8.43;79.89;100469.31;720791;1203;113636;-73
2021/10/30 06:44:00;;;;;;;60.25;29.85;;;;;;;8.74;81.09;100484.45;714559;1177;113903;-71
2021/10/30 06:59:04;;;;;;;33.77;18.13;;;;;;;9.90;79.26;100477.92;714605;1200;114248;-76
2021/10/30 07:14:06;;;;;;;37.70;21.17;;;;;;;10.98;76.84;100495.13;715213;1203;114902;-71
2021/10/30 07:29:09;;;;;;;37.60;19.40;;;;;;;11.32;75.14;100500.89;714791;1200;114402;-72
2021/10/30 07:44:11;;;;;;;36.47;20.10;;;;;;;11.90;72.83;100488.75;714855;1192;113982;-70
2021/10/30 07:59:14;;;;;;;27.38;16.48;;;;;;;12.42;70.32;100488.45;714687;1198;115728;-73
2021/10/30 08:14:16;;;;;;;38.03;20.55;;;;;;;12.77;69.40;100492.20;714852;1203;115505;-76
2021/10/30 08:29:19;;;;;;;37.50;17.85;;;;;;;13.69;68.98;100475.66;714858;1200;115384;-76
2021/10/30 08:44:22;;;;;;;28.97;17.03;;;;;;;14.25;67.50;100477.09;714285;1200;114626;-74
2021/10/30 08:59:44;;;;;;;37.87;20.87;;;;;;;14.51;65.82;100467.51;715238;1206;114294;-74
2021/10/30 09:14:47;;;;;;;37.77;21.10;;;;;;;15.55;64.34;100450.54;714515;1177;114910;-75
2021/10/30 09:29:56;;;;;;;27.10;16.55;;;;;;;16.18;62.63;100444.76;714965;1178;115536;-74
2021/10/30 09:45:07;;;;;;;26.63;15.75;;;;;;;16.55;61.32;100441.54;714783;1200;115211;-77
2021/10/30 10:00:11;;;;;;;30.90;16.43;;;;;;;16.85;60.12;100443.57;714540;1192;114140;-73
2021/10/30 10:15:16;;;;;;;24.40;14.17;;;;;;;17.56;59.59;100420.46;717534;1202;114720;-76
2021/10/30 10:30:18;;;;;;;24.15;14.35;;;;;;;17.55;56.88;100407.38;720615;1179;114613;-75
2021/10/30 10:45:21;;;;;;;21.73;14.23;;;;;;;18.04;56.26;100391.06;715399;1202;114175;-75
2021/10/30 11:00:24;;;;;;;24.45;13.05;;;;;;;18.63;55.27;100368.97;714966;1202;114045;-74
2021/10/30 11:15:39;;;;;;;20.05;12.58;;;;;;;18.73;55.48;100335.97;715985;1201;114332;-75
2021/10/30 11:30:43;;;;;;;22.88;12.78;;;;;;;19.27;54.07;100324.87;715853;1203;114264;-75
2021/10/30 11:45:47;;;;;;;22.87;13.93;;;;;;;19.74;54.04;100301.28;715283;1203;114975;-74
2021/10/30 12:00:49;;;;;;;21.43;12.77;;;;;;;20.54;53.34;100284.05;715983;1205;114633;-74
2021/10/30 12:15:52;;;;;;;27.93;16.20;;;;;;;20.66;51.92;100274.43;715634;1202;115490;-70
2021/10/30 12:30:54;;;;;;;25.15;15.75;;;;;;;21.08;51.28;100259.13;717632;1202;114611;-71
2021/10/30 12:45:59;;;;;;;24.33;14.00;;;;;;;21.92;50.81;100253.25;715162;1203;114982;-72
2021/10/30 13:01:02;;;;;;;27.80;16.55;;;;;;;25.12;48.51;100230.75;715427;1202;114635;-72
2021/10/30 13:16:06;;;;;;;34.28;18.63;;;;;;;27.83;42.98;100235.02;714688;1202;114934;-73
2021/10/30 13:31:09;;;;;;;56.10;28.30;;;;;;;29.93;42.85;100218.84;715854;1203;114719;-72
2021/10/30 13:46:12;;;;;;;46.10;24.25;;;;;;;31.11;42.43;100212.73;715660;1200;115682;-72
2021/10/30 14:01:15;;;;;;;31.45;18.65;;;;;;;29.67;40.97;100207.14;714510;1202;115013;-72
2021/10/30 14:16:17;;;;;;;30.30;19.13;;;;;;;28.64;41.92;100198.36;715040;1203;114540;-71
2021/10/30 14:31:21;;;;;;;34.73;22.93;;;;;;;23.19;45.30;100179.50;714757;1202;114511;-72
2021/10/30 14:46:26;;;;;;;35.90;20.95;;;;;;;20.18;48.27;100168.80;714766;1177;114401;-71
2021/10/30 15:01:31;;;;;;;30.10;17.55;;;;;;;18.13;50.65;100139.61;714511;1203;114294;-72
2021/10/30 15:16:34;;;;;;;65.73;32.45;;;;;;;16.73;52.89;100141.17;714832;1177;114539;-69
2021/10/30 15:31:36;;;;;;;58.23;29.30;;;;;;;15.88;54.87;100142.94;714540;1200;114561;-71
2021/10/30 15:46:39;;;;;;;38.88;23.28;;;;;;;15.06;56.96;100134.27;714902;1178;114026;-74
2021/10/30 16:01:41;;;;;;;33.17;19.17;;;;;;;14.46;59.31;100146.81;714319;1182;114061;-73
2021/10/30 16:16:44;;;;;;;43.65;24.00;;;;;;;14.14;60.32;100135.21;714444;1202;114612;-73
2021/10/30 16:32:08;;;;;;;31.75;16.85;;;;;;;13.64;62.35;100141.33;714336;1177;114001;-73
2021/10/30 16:47:12;;;;;;;28.38;15.20;;;;;;;13.39;64.02;100143.04;714184;1180;114884;-74
2021/10/30 17:02:15;;;;;;;29.65;16.25;;;;;;;13.10;64.57;100159.95;714455;1177;114435;-72
2021/10/30 17:17:18;;;;;;;40.33;20.13;;;;;;;12.87;66.12;100138.59;714471;1176;114209;-72
2021/10/30 17:32:21;;;;;;;46.43;21.58;;;;;;;12.76;66.82;100121.21;715372;1195;115202;-71
2021/10/30 17:47:23;;;;;;;29.65;17.63;;;;;;;12.74;67.82;100112.66;714253;1178;114408;-71
2021/10/30 18:02:25;;;;;;;38.43;19.43;;;;;;;12.61;68.26;100105.16;714391;1202;114576;-71
2021/10/30 18:17:29;;;;;;;32.53;15.90;;;;;;;12.46;68.92;100079.39;714833;1200;114867;-70
2021/10/30 18:32:32;;;;;;;35.70;18.05;;;;;;;12.49;69.42;100076.45;715184;1177;115071;-70
2021/10/30 18:47:35;;;;;;;27.58;14.23;;;;;;;12.45;68.80;100066.39;714816;1203;114198;-71
2021/10/30 19:02:38;;;;;;;23.85;14.20;;;;;;;12.74;69.10;100058.20;714852;1203;114722;-72
2021/10/30 19:17:41;;;;;;;23.98;12.65;;;;;;;13.77;66.90;100035.45;714421;1178;114276;-71
2021/10/30 19:32:45;;;;;;;24.90;13.60;;;;;;;14.12;65.26;100044.88;714463;1177;114263;-71
2021/10/30 19:47:47;;;;;;;24.37;12.40;;;;;;;14.29;63.48;100021.97;714424;1203;114317;-72
2021/10/30 20:02:50;;;;;;;22.05;13.25;;;;;;;14.29;64.13;100023.77;714231;1205;114835;-71
2021/10/30 20:17:53;;;;;;;22.20;12.63;;;;;;;14.26;63.58;100014.36;714138;1180;114638;-72
2021/10/30 20:32:56;;;;;;;24.37;13.23;;;;;;;14.26;64.51;100026.74;715485;1206;113620;-72
2021/10/30 20:47:59;;;;;;;21.93;11.10;;;;;;;14.00;64.65;100025.08;714268;1186;113775;-74
2021/10/30 21:03:02;;;;;;;20.80;12.17;;;;;;;13.77;65.36;100036.26;714311;1202;115330;-73
2021/10/30 21:18:04;;;;;;;22.40;12.43;;;;;;;13.62;65.92;100043.16;714115;1176;115941;-73
2021/10/30 21:33:06;;;;;;;23.37;12.67;;;;;;;13.37;66.77;100039.61;714082;1205;115697;-73
2021/10/30 21:48:09;;;;;;;21.77;12.55;;;;;;;13.21;67.02;100035.08;713990;1205;115096;-74
2021/10/30 22:03:12;;;;;;;24.18;13.45;;;;;;;12.88;68.17;100040.18;714170;1201;114506;-74
2021/10/30 22:18:14;;;;;;;22.88;12.20;;;;;;;12.41;69.54;100041.38;713888;1203;114205;-74
2021/10/30 22:33:16;;;;;;;20.13;12.18;;;;;;;12.25;70.23;100056.05;713815;1202;115253;-74
2021/10/30 22:48:19;;;;;;;33.08;13.35;;;;;;;12.21;70.67;100056.52;713320;1183;115595;-73
2021/10/30 23:03:21;;;;;;;25.18;13.43;;;;;;;12.01;71.20;100064.55;713711;1204;114051;-75
2021/10/30 23:18:23;;;;;;;22.28;12.45;;;;;;;11.91;71.10;100059.31;713931;1204;114286;-75
2021/10/30 23:33:26;;;;;;;23.90;13.40;;;;;;;11.80;72.28;100072.69;713995;1178;114140;-74
2021/10/30 23:48:29;;;;;;;26.73;13.30;;;;;;;11.64;72.71;100089.11;713763;1200;114701;-74
